sensor_id;sensor_type;location;lat;lon;timestamp;temperature;humidity
12477;DHT22;6303;51.504;6.300;2023-09-12T00:00:48;32.10;67.70
12477;DHT22;6303;51.504;6.300;2023-09-12T00:03:19;32.10;67.50
12477;DHT22;6303;51.504;6.300;2023-09-12T00:05:51;32.10;67.40
12477;DHT22;6303;51.504;6.300;2023-09-12T00:08:18;32.10;67.50
12477;DHT22;6303;51.504;6.300;2023-09-12T00:10:46;32.00;67.50
12477;DHT22;6303;51.504;6.300;2023-09-12T00:13:13;32.00;67.60
12477;DHT22;6303;51.504;6.300;2023-09-12T00:15:40;32.00;67.70
12477;DHT22;6303;51.504;6.300;2023-09-12T00:18:09;32.00;67.80
12477;DHT22;6303;51.504;6.300;2023-09-12T00:20:36;32.00;67.80
12477;DHT22;6303;51.504;6.300;2023-09-12T00:23:03;32.00;67.80
12477;DHT22;6303;51.504;6.300;2023-09-12T00:25:35;32.00;67.80
12477;DHT22;6303;51.504;6.300;2023-09-12T00:28:03;32.00;68.00
12477;DHT22;6303;51.504;6.300;2023-09-12T00:30:31;32.00;67.90
12477;DHT22;6303;51.504;6.300;2023-09-12T00:32:58;32.00;67.90
12477;DHT22;6303;51.504;6.300;2023-09-12T00:35:26;31.90;67.80
12477;DHT22;6303;51.504;6.300;2023-09-12T00:37:53;31.90;67.80
12477;DHT22;6303;51.504;6.300;2023-09-12T00:40:20;31.90;67.90
12477;DHT22;6303;51.504;6.300;2023-09-12T00:42:48;31.90;68.00
12477;DHT22;6303;51.504;6.300;2023-09-12T00:45:16;31.90;68.00
12477;DHT22;6303;51.504;6.300;2023-09-12T00:47:43;31.90;68.10
12477;DHT22;6303;51.504;6.300;2023-09-12T00:50:10;31.90;68.20
12477;DHT22;6303;51.504;6.300;2023-09-12T00:52:39;31.90;68.20
12477;DHT22;6303;51.504;6.300;2023-09-12T00:55:07;31.90;68.20
12477;DHT22;6303;51.504;6.300;2023-09-12T00:57:35;31.90;68.20
12477;DHT22;6303;51.504;6.300;2023-09-12T01:00:03;31.90;68.30
12477;DHT22;6303;51.504;6.300;2023-09-12T01:02:37;31.90;68.40
12477;DHT22;6303;51.504;6.300;2023-09-12T01:05:05;31.80;68.30
12477;DHT22;6303;51.504;6.300;2023-09-12T01:07:33;31.90;68.40
12477;DHT22;6303;51.504;6.300;2023-09-12T01:10:02;31.80;68.40
12477;DHT22;6303;51.504;6.300;2023-09-12T01:12:29;31.80;68.40
12477;DHT22;6303;51.504;6.300;2023-09-12T01:14:57;31.80;68.50
12477;DHT22;6303;51.504;6.300;2023-09-12T01:17:24;31.80;69.20
12477;DHT22;6303;51.504;6.300;2023-09-12T01:19:52;31.80;68.50
12477;DHT22;6303;51.504;6.300;2023-09-12T01:25:45;31.80;68.50
12477;DHT22;6303;51.504;6.300;2023-09-12T01:28:20;31.80;68.50
12477;DHT22;6303;51.504;6.300;2023-09-12T01:30:50;31.80;68.50
12477;DHT22;6303;51.504;6.300;2023-09-12T01:33:19;31.80;68.60
12477;DHT22;6303;51.504;6.300;2023-09-12T01:35:46;31.70;68.60
12477;DHT22;6303;51.504;6.300;2023-09-12T01:38:13;31.70;68.70
12477;DHT22;6303;51.504;6.300;2023-09-12T01:40:46;31.70;68.70
12477;DHT22;6303;51.504;6.300;2023-09-12T01:43:17;31.70;68.60
12477;DHT22;6303;51.504;6.300;2023-09-12T01:45:46;31.70;68.70
12477;DHT22;6303;51.504;6.300;2023-09-12T01:48:19;31.70;68.70
12477;DHT22;6303;51.504;6.300;2023-09-12T01:50:46;31.70;68.80
12477;DHT22;6303;51.504;6.300;2023-09-12T01:53:14;31.70;68.70
12477;DHT22;6303;51.504;6.300;2023-09-12T01:55:42;31.70;68.80
12477;DHT22;6303;51.504;6.300;2023-09-12T01:58:11;31.70;68.90
12477;DHT22;6303;51.504;6.300;2023-09-12T02:00:39;31.70;69.00
12477;DHT22;6303;51.504;6.300;2023-09-12T02:03:08;31.70;69.00
12477;DHT22;6303;51.504;6.300;2023-09-12T02:05:35;31.70;69.20
12477;DHT22;6303;51.504;6.300;2023-09-12T02:08:03;31.60;69.00
12477;DHT22;6303;51.504;6.300;2023-09-12T02:10:30;31.70;68.60
12477;DHT22;6303;51.504;6.300;2023-09-12T02:12:58;31.70;68.30
12477;DHT22;6303;51.504;6.300;2023-09-12T02:15:25;31.60;68.20
12477;DHT22;6303;51.504;6.300;2023-09-12T02:17:52;31.60;68.30
12477;DHT22;6303;51.504;6.300;2023-09-12T02:20:21;31.60;68.40
12477;DHT22;6303;51.504;6.300;2023-09-12T02:22:48;31.60;68.40
12477;DHT22;6303;51.504;6.300;2023-09-12T02:25:15;31.60;68.40
12477;DHT22;6303;51.504;6.300;2023-09-12T02:27:42;31.60;68.20
12477;DHT22;6303;51.504;6.300;2023-09-12T02:30:09;31.60;68.20
12477;DHT22;6303;51.504;6.300;2023-09-12T02:32:36;31.60;68.20
12477;DHT22;6303;51.504;6.300;2023-09-12T02:35:04;31.60;68.20
12477;DHT22;6303;51.504;6.300;2023-09-12T02:37:32;31.60;68.20
12477;DHT22;6303;51.504;6.300;2023-09-12T02:39:59;31.30;68.00
12477;DHT22;6303;51.504;6.300;2023-09-12T02:42:26;31.60;68.20
12477;DHT22;6303;51.504;6.300;2023-09-12T02:44:53;31.60;68.20
12477;DHT22;6303;51.504;6.300;2023-09-12T02:47:21;31.60;68.30
12477;DHT22;6303;51.504;6.300;2023-09-12T02:49:48;31.50;68.30
12477;DHT22;6303;51.504;6.300;2023-09-12T02:52:15;31.50;68.30
12477;DHT22;6303;51.504;6.300;2023-09-12T02:54:43;31.50;68.40
12477;DHT22;6303;51.504;6.300;2023-09-12T02:57:10;31.50;68.30
12477;DHT22;6303;51.504;6.300;2023-09-12T02:59:37;31.50;68.30
12477;DHT22;6303;51.504;6.300;2023-09-12T03:02:04;31.50;68.30
12477;DHT22;6303;51.504;6.300;2023-09-12T03:04:34;31.50;68.30
12477;DHT22;6303;51.504;6.300;2023-09-12T03:07:01;31.50;68.20
12477;DHT22;6303;51.504;6.300;2023-09-12T03:09:29;31.50;68.20
12477;DHT22;6303;51.504;6.300;2023-09-12T03:11:57;31.50;68.20
12477;DHT22;6303;51.504;6.300;2023-09-12T03:14:24;31.40;68.20
12477;DHT22;6303;51.504;6.300;2023-09-12T03:16:51;31.40;68.30
12477;DHT22;6303;51.504;6.300;2023-09-12T03:19:18;31.40;68.20
12477;DHT22;6303;51.504;6.300;2023-09-12T03:21:45;31.40;68.00
12477;DHT22;6303;51.504;6.300;2023-09-12T03:24:12;31.40;68.00
12477;DHT22;6303;51.504;6.300;2023-09-12T03:26:39;31.40;68.20
12477;DHT22;6303;51.504;6.300;2023-09-12T03:29:08;31.40;68.20
12477;DHT22;6303;51.504;6.300;2023-09-12T03:31:35;31.40;68.20
12477;DHT22;6303;51.504;6.300;2023-09-12T03:34:02;31.40;68.10
12477;DHT22;6303;51.504;6.300;2023-09-12T03:36:30;31.40;68.20
12477;DHT22;6303;51.504;6.300;2023-09-12T03:38:57;31.40;68.20
12477;DHT22;6303;51.504;6.300;2023-09-12T03:41:24;31.40;68.20
12477;DHT22;6303;51.504;6.300;2023-09-12T03:43:53;30.70;67.60
12477;DHT22;6303;51.504;6.300;2023-09-12T03:46:22;31.30;68.00
12477;DHT22;6303;51.504;6.300;2023-09-12T03:48:50;31.40;68.00
12477;DHT22;6303;51.504;6.300;2023-09-12T03:51:17;31.30;67.90
12477;DHT22;6303;51.504;6.300;2023-09-12T03:53:44;31.30;67.90
12477;DHT22;6303;51.504;6.300;2023-09-12T03:56:13;31.30;67.90
12477;DHT22;6303;51.504;6.300;2023-09-12T03:58:41;31.30;67.90
12477;DHT22;6303;51.504;6.300;2023-09-12T04:01:09;31.30;67.80
12477;DHT22;6303;51.504;6.300;2023-09-12T04:03:37;31.30;67.80
12477;DHT22;6303;51.504;6.300;2023-09-12T04:06:05;31.30;67.70
12477;DHT22;6303;51.504;6.300;2023-09-12T04:08:33;31.30;67.50
12477;DHT22;6303;51.504;6.300;2023-09-12T04:11:00;31.30;67.30
12477;DHT22;6303;51.504;6.300;2023-09-12T04:13:27;31.30;67.20
12477;DHT22;6303;51.504;6.300;2023-09-12T04:15:54;31.20;67.10
12477;DHT22;6303;51.504;6.300;2023-09-12T04:18:21;31.20;67.40
12477;DHT22;6303;51.504;6.300;2023-09-12T04:20:50;31.20;68.20
12477;DHT22;6303;51.504;6.300;2023-09-12T04:23:17;31.20;67.40
12477;DHT22;6303;51.504;6.300;2023-09-12T04:25:46;31.20;67.10
12477;DHT22;6303;51.504;6.300;2023-09-12T04:28:14;31.20;67.00
12477;DHT22;6303;51.504;6.300;2023-09-12T04:30:41;31.20;67.10
12477;DHT22;6303;51.504;6.300;2023-09-12T04:33:08;31.20;67.20
12477;DHT22;6303;51.504;6.300;2023-09-12T04:35:35;31.20;67.10
12477;DHT22;6303;51.504;6.300;2023-09-12T04:38:04;31.20;67.10
12477;DHT22;6303;51.504;6.300;2023-09-12T04:40:31;31.20;67.10
12477;DHT22;6303;51.504;6.300;2023-09-12T04:42:58;31.20;67.00
12477;DHT22;6303;51.504;6.300;2023-09-12T04:45:25;31.20;67.20
12477;DHT22;6303;51.504;6.300;2023-09-12T04:47:53;31.10;67.30
12477;DHT22;6303;51.504;6.300;2023-09-12T04:50:20;31.10;67.30
12477;DHT22;6303;51.504;6.300;2023-09-12T04:52:47;31.10;67.40
12477;DHT22;6303;51.504;6.300;2023-09-12T04:55:15;31.10;67.30
12477;DHT22;6303;51.504;6.300;2023-09-12T04:57:43;31.10;67.40
12477;DHT22;6303;51.504;6.300;2023-09-12T05:00:11;31.10;67.40
12477;DHT22;6303;51.504;6.300;2023-09-12T05:02:38;31.10;67.50
12477;DHT22;6303;51.504;6.300;2023-09-12T05:05:06;31.10;67.10
12477;DHT22;6303;51.504;6.300;2023-09-12T05:07:33;31.10;66.60
12477;DHT22;6303;51.504;6.300;2023-09-12T05:10:01;31.10;66.40
12477;DHT22;6303;51.504;6.300;2023-09-12T05:12:30;31.10;66.50
12477;DHT22;6303;51.504;6.300;2023-09-12T05:14:58;31.10;66.80
12477;DHT22;6303;51.504;6.300;2023-09-12T05:17:25;31.10;67.00
12477;DHT22;6303;51.504;6.300;2023-09-12T05:19:52;31.10;66.80
12477;DHT22;6303;51.504;6.300;2023-09-12T05:22:19;31.00;67.10
12477;DHT22;6303;51.504;6.300;2023-09-12T05:24:46;31.00;67.40
12477;DHT22;6303;51.504;6.300;2023-09-12T05:27:15;31.00;67.60
12477;DHT22;6303;51.504;6.300;2023-09-12T05:29:43;31.00;67.70
12477;DHT22;6303;51.504;6.300;2023-09-12T05:32:10;31.00;67.80
12477;DHT22;6303;51.504;6.300;2023-09-12T05:34:38;31.00;68.60
12477;DHT22;6303;51.504;6.300;2023-09-12T05:37:05;31.00;69.10
12477;DHT22;6303;51.504;6.300;2023-09-12T05:39:32;31.00;69.60
12477;DHT22;6303;51.504;6.300;2023-09-12T05:41:59;31.00;69.50
12477;DHT22;6303;51.504;6.300;2023-09-12T05:44:26;31.00;69.00
12477;DHT22;6303;51.504;6.300;2023-09-12T05:46:55;31.00;68.80
12477;DHT22;6303;51.504;6.300;2023-09-12T05:49:23;31.00;68.70
12477;DHT22;6303;51.504;6.300;2023-09-12T05:51:50;31.00;68.60
12477;DHT22;6303;51.504;6.300;2023-09-12T05:54:17;31.00;68.70
12477;DHT22;6303;51.504;6.300;2023-09-12T05:56:45;31.00;68.80
12477;DHT22;6303;51.504;6.300;2023-09-12T05:59:14;31.00;68.60
12477;DHT22;6303;51.504;6.300;2023-09-12T06:01:41;31.00;68.40
12477;DHT22;6303;51.504;6.300;2023-09-12T06:04:09;30.90;68.30
12477;DHT22;6303;51.504;6.300;2023-09-12T06:06:38;30.90;68.20
12477;DHT22;6303;51.504;6.300;2023-09-12T06:09:05;30.90;68.50
12477;DHT22;6303;51.504;6.300;2023-09-12T06:11:34;30.90;68.30
12477;DHT22;6303;51.504;6.300;2023-09-12T06:14:01;30.90;68.30
12477;DHT22;6303;51.504;6.300;2023-09-12T06:16:28;30.90;68.40
12477;DHT22;6303;51.504;6.300;2023-09-12T06:18:55;30.80;68.30
12477;DHT22;6303;51.504;6.300;2023-09-12T06:21:24;30.80;68.50
12477;DHT22;6303;51.504;6.300;2023-09-12T06:24:08;30.80;68.20
12477;DHT22;6303;51.504;6.300;2023-09-12T06:26:36;30.80;68.00
12477;DHT22;6303;51.504;6.300;2023-09-12T06:29:03;30.80;68.00
12477;DHT22;6303;51.504;6.300;2023-09-12T06:31:31;31.60;69.20
12477;DHT22;6303;51.504;6.300;2023-09-12T06:33:58;30.80;67.50
12477;DHT22;6303;51.504;6.300;2023-09-12T06:36:27;30.80;67.30
12477;DHT22;6303;51.504;6.300;2023-09-12T06:38:55;30.80;67.30
12477;DHT22;6303;51.504;6.300;2023-09-12T06:41:22;30.80;67.20
12477;DHT22;6303;51.504;6.300;2023-09-12T06:43:49;30.70;67.10
12477;DHT22;6303;51.504;6.300;2023-09-12T06:46:16;30.70;67.00
12477;DHT22;6303;51.504;6.300;2023-09-12T06:48:43;30.70;67.00
12477;DHT22;6303;51.504;6.300;2023-09-12T06:51:11;30.70;67.00
12477;DHT22;6303;51.504;6.300;2023-09-12T06:53:39;30.70;67.00
12477;DHT22;6303;51.504;6.300;2023-09-12T06:56:07;30.70;67.10
12477;DHT22;6303;51.504;6.300;2023-09-12T06:58:34;30.70;67.10
12477;DHT22;6303;51.504;6.300;2023-09-12T07:01:02;30.70;67.10
12477;DHT22;6303;51.504;6.300;2023-09-12T07:03:30;30.60;67.20
12477;DHT22;6303;51.504;6.300;2023-09-12T07:05:57;30.60;67.20
12477;DHT22;6303;51.504;6.300;2023-09-12T07:08:24;30.60;67.10
12477;DHT22;6303;51.504;6.300;2023-09-12T07:10:52;30.60;67.20
12477;DHT22;6303;51.504;6.300;2023-09-12T07:13:20;30.60;67.30
12477;DHT22;6303;51.504;6.300;2023-09-12T07:15:47;30.60;67.40
12477;DHT22;6303;51.504;6.300;2023-09-12T07:18:15;30.60;67.40
12477;DHT22;6303;51.504;6.300;2023-09-12T07:20:42;30.60;67.30
12477;DHT22;6303;51.504;6.300;2023-09-12T07:23:09;30.60;67.30
12477;DHT22;6303;51.504;6.300;2023-09-12T07:25:38;30.60;67.30
12477;DHT22;6303;51.504;6.300;2023-09-12T07:28:07;30.60;67.30
12477;DHT22;6303;51.504;6.300;2023-09-12T07:30:34;30.60;67.30
12477;DHT22;6303;51.504;6.300;2023-09-12T07:33:03;30.60;67.30
12477;DHT22;6303;51.504;6.300;2023-09-12T07:35:30;31.40;68.00
12477;DHT22;6303;51.504;6.300;2023-09-12T07:37:57;30.60;67.20
12477;DHT22;6303;51.504;6.300;2023-09-12T07:40:24;30.60;67.20
12477;DHT22;6303;51.504;6.300;2023-09-12T07:42:52;30.60;67.20
12477;DHT22;6303;51.504;6.300;2023-09-12T07:45:22;30.60;67.20
12477;DHT22;6303;51.504;6.300;2023-09-12T07:47:49;30.60;67.30
12477;DHT22;6303;51.504;6.300;2023-09-12T07:50:17;30.60;67.30
12477;DHT22;6303;51.504;6.300;2023-09-12T07:52:44;30.60;67.30
12477;DHT22;6303;51.504;6.300;2023-09-12T07:55:11;30.60;67.40
12477;DHT22;6303;51.504;6.300;2023-09-12T07:57:38;30.60;67.40
12477;DHT22;6303;51.504;6.300;2023-09-12T08:00:06;30.60;67.50
12477;DHT22;6303;51.504;6.300;2023-09-12T08:02:40;30.70;67.70
12477;DHT22;6303;51.504;6.300;2023-09-12T08:05:07;30.70;67.70
12477;DHT22;6303;51.504;6.300;2023-09-12T08:07:35;30.70;67.70
12477;DHT22;6303;51.504;6.300;2023-09-12T08:10:02;30.70;68.20
12477;DHT22;6303;51.504;6.300;2023-09-12T08:12:29;30.70;67.50
12477;DHT22;6303;51.504;6.300;2023-09-12T08:14:56;30.70;67.50
12477;DHT22;6303;51.504;6.300;2023-09-12T08:17:24;30.70;67.50
12477;DHT22;6303;51.504;6.300;2023-09-12T08:19:53;30.70;67.50
12477;DHT22;6303;51.504;6.300;2023-09-12T08:22:20;30.70;67.50
12477;DHT22;6303;51.504;6.300;2023-09-12T08:24:47;30.70;67.40
12477;DHT22;6303;51.504;6.300;2023-09-12T08:27:14;30.70;67.30
12477;DHT22;6303;51.504;6.300;2023-09-12T08:29:41;30.70;67.40
12477;DHT22;6303;51.504;6.300;2023-09-12T08:32:10;30.70;67.40
12477;DHT22;6303;51.504;6.300;2023-09-12T08:34:37;30.70;67.30
12477;DHT22;6303;51.504;6.300;2023-09-12T08:37:05;30.80;67.30
12477;DHT22;6303;51.504;6.300;2023-09-12T08:39:40;30.80;67.40
12477;DHT22;6303;51.504;6.300;2023-09-12T08:42:12;30.80;67.20
12477;DHT22;6303;51.504;6.300;2023-09-12T08:44:40;30.90;67.20
12477;DHT22;6303;51.504;6.300;2023-09-12T08:47:08;31.00;67.10
12477;DHT22;6303;51.504;6.300;2023-09-12T08:49:36;31.00;66.90
12477;DHT22;6303;51.504;6.300;2023-09-12T08:52:05;31.00;66.70
12477;DHT22;6303;51.504;6.300;2023-09-12T08:54:33;31.00;66.80
12477;DHT22;6303;51.504;6.300;2023-09-12T08:57:01;31.00;66.90
12477;DHT22;6303;51.504;6.300;2023-09-12T08:59:30;31.00;67.00
12477;DHT22;6303;51.504;6.300;2023-09-12T09:01:59;31.00;67.00
12477;DHT22;6303;51.504;6.300;2023-09-12T09:04:28;31.00;66.90
12477;DHT22;6303;51.504;6.300;2023-09-12T09:06:58;31.00;66.80
12477;DHT22;6303;51.504;6.300;2023-09-12T09:09:26;31.00;66.80
12477;DHT22;6303;51.504;6.300;2023-09-12T09:11:54;31.00;66.90
12477;DHT22;6303;51.504;6.300;2023-09-12T09:14:21;31.00;66.80
12477;DHT22;6303;51.504;6.300;2023-09-12T09:16:49;31.00;66.70
12477;DHT22;6303;51.504;6.300;2023-09-12T09:19:16;31.00;66.30
12477;DHT22;6303;51.504;6.300;2023-09-12T09:21:45;31.00;66.10
12477;DHT22;6303;51.504;6.300;2023-09-12T09:24:14;31.00;66.50
12477;DHT22;6303;51.504;6.300;2023-09-12T09:26:46;31.10;67.30
12477;DHT22;6303;51.504;6.300;2023-09-12T09:29:15;31.10;67.40
12477;DHT22;6303;51.504;6.300;2023-09-12T09:31:44;31.20;67.00
12477;DHT22;6303;51.504;6.300;2023-09-12T09:34:12;31.30;66.50
12477;DHT22;6303;51.504;6.300;2023-09-12T09:36:43;31.40;66.20
12477;DHT22;6303;51.504;6.300;2023-09-12T09:39:11;31.50;65.90
12477;DHT22;6303;51.504;6.300;2023-09-12T09:41:40;31.60;65.50
12477;DHT22;6303;51.504;6.300;2023-09-12T09:44:09;31.70;64.90
12477;DHT22;6303;51.504;6.300;2023-09-12T09:46:37;31.80;64.50
12477;DHT22;6303;51.504;6.300;2023-09-12T09:49:04;31.90;64.40
12477;DHT22;6303;51.504;6.300;2023-09-12T09:51:33;32.00;64.30
12477;DHT22;6303;51.504;6.300;2023-09-12T09:54:07;32.00;63.50
12477;DHT22;6303;51.504;6.300;2023-09-12T09:56:45;32.10;62.70
12477;DHT22;6303;51.504;6.300;2023-09-12T09:59:15;32.10;63.20
12477;DHT22;6303;51.504;6.300;2023-09-12T10:01:44;32.10;62.40
12477;DHT22;6303;51.504;6.300;2023-09-12T10:04:11;32.10;62.60
12477;DHT22;6303;51.504;6.300;2023-09-12T10:06:38;32.10;62.80
12477;DHT22;6303;51.504;6.300;2023-09-12T10:09:09;32.10;63.10
12477;DHT22;6303;51.504;6.300;2023-09-12T10:11:38;32.00;63.20
12477;DHT22;6303;51.504;6.300;2023-09-12T10:14:06;32.00;63.40
12477;DHT22;6303;51.504;6.300;2023-09-12T10:16:35;32.00;63.50
12477;DHT22;6303;51.504;6.300;2023-09-12T10:19:10;31.90;63.50
12477;DHT22;6303;51.504;6.300;2023-09-12T10:21:44;31.90;63.30
12477;DHT22;6303;51.504;6.300;2023-09-12T10:24:12;32.00;63.20
12477;DHT22;6303;51.504;6.300;2023-09-12T10:26:41;32.00;62.80
12477;DHT22;6303;51.504;6.300;2023-09-12T10:29:13;32.00;63.00
12477;DHT22;6303;51.504;6.300;2023-09-12T10:31:42;32.10;62.90
12477;DHT22;6303;51.504;6.300;2023-09-12T10:34:12;31.40;62.20
12477;DHT22;6303;51.504;6.300;2023-09-12T10:36:40;32.00;62.80
12477;DHT22;6303;51.504;6.300;2023-09-12T10:39:08;32.00;62.80
12477;DHT22;6303;51.504;6.300;2023-09-12T10:41:37;32.00;63.10
12477;DHT22;6303;51.504;6.300;2023-09-12T10:44:08;32.00;63.10
12477;DHT22;6303;51.504;6.300;2023-09-12T10:46:37;32.00;62.90
12477;DHT22;6303;51.504;6.300;2023-09-12T10:49:08;32.10;62.90
12477;DHT22;6303;51.504;6.300;2023-09-12T10:51:38;32.10;62.70
12477;DHT22;6303;51.504;6.300;2023-09-12T10:54:07;32.20;62.80
12477;DHT22;6303;51.504;6.300;2023-09-12T10:56:35;32.20;62.60
12477;DHT22;6303;51.504;6.300;2023-09-12T10:59:19;32.30;62.60
12477;DHT22;6303;51.504;6.300;2023-09-12T11:01:51;32.30;62.50
12477;DHT22;6303;51.504;6.300;2023-09-12T11:04:32;32.30;62.40
12477;DHT22;6303;51.504;6.300;2023-09-12T11:07:00;32.40;62.10
12477;DHT22;6303;51.504;6.300;2023-09-12T11:09:28;32.40;61.80
12477;DHT22;6303;51.504;6.300;2023-09-12T11:11:57;32.50;61.70
12477;DHT22;6303;51.504;6.300;2023-09-12T11:14:25;32.50;61.20
12477;DHT22;6303;51.504;6.300;2023-09-12T11:17:23;32.60;60.80
12477;DHT22;6303;51.504;6.300;2023-09-12T11:19:52;32.60;60.70
12477;DHT22;6303;51.504;6.300;2023-09-12T11:22:24;32.60;60.60
12477;DHT22;6303;51.504;6.300;2023-09-12T11:24:52;33.00;61.40
12477;DHT22;6303;51.504;6.300;2023-09-12T11:27:19;32.70;61.00
12477;DHT22;6303;51.504;6.300;2023-09-12T11:29:47;32.70;61.00
12477;DHT22;6303;51.504;6.300;2023-09-12T11:32:27;32.70;61.00
12477;DHT22;6303;51.504;6.300;2023-09-12T11:34:55;32.70;61.00
12477;DHT22;6303;51.504;6.300;2023-09-12T11:37:23;32.70;61.00
12477;DHT22;6303;51.504;6.300;2023-09-12T11:39:51;32.70;60.80
12477;DHT22;6303;51.504;6.300;2023-09-12T11:42:18;32.70;61.10
12477;DHT22;6303;51.504;6.300;2023-09-12T11:44:48;32.70;60.90
12477;DHT22;6303;51.504;6.300;2023-09-12T11:47:15;32.70;60.50
12477;DHT22;6303;51.504;6.300;2023-09-12T11:49:43;32.80;60.50
12477;DHT22;6303;51.504;6.300;2023-09-12T11:52:13;32.80;60.40
12477;DHT22;6303;51.504;6.300;2023-09-12T11:54:43;32.80;60.50
12477;DHT22;6303;51.504;6.300;2023-09-12T11:57:12;32.80;60.60
12477;DHT22;6303;51.504;6.300;2023-09-12T11:59:41;32.10;60.00
12477;DHT22;6303;51.504;6.300;2023-09-12T12:02:11;32.80;60.50
12477;DHT22;6303;51.504;6.300;2023-09-12T12:04:38;32.80;60.70
12477;DHT22;6303;51.504;6.300;2023-09-12T12:07:07;32.80;61.10
12477;DHT22;6303;51.504;6.300;2023-09-12T12:09:36;32.80;61.30
12477;DHT22;6303;51.504;6.300;2023-09-12T12:12:08;32.80;61.10
12477;DHT22;6303;51.504;6.300;2023-09-12T12:14:35;32.80;61.00
12477;DHT22;6303;51.504;6.300;2023-09-12T12:17:06;32.90;61.00
12477;DHT22;6303;51.504;6.300;2023-09-12T12:19:34;32.80;60.90
12477;DHT22;6303;51.504;6.300;2023-09-12T12:22:02;32.80;60.40
12477;DHT22;6303;51.504;6.300;2023-09-12T12:24:38;32.80;60.30
12477;DHT22;6303;51.504;6.300;2023-09-12T12:27:06;32.80;60.00
12477;DHT22;6303;51.504;6.300;2023-09-12T12:29:34;32.80;59.70
12477;DHT22;6303;51.504;6.300;2023-09-12T12:32:02;32.80;59.50
12477;DHT22;6303;51.504;6.300;2023-09-12T12:34:31;32.80;59.50
12477;DHT22;6303;51.504;6.300;2023-09-12T12:36:58;32.80;59.60
12477;DHT22;6303;51.504;6.300;2023-09-12T12:39:25;32.70;59.60
12477;DHT22;6303;51.504;6.300;2023-09-12T12:41:54;32.70;59.70
12477;DHT22;6303;51.504;6.300;2023-09-12T12:44:21;32.70;59.90
12477;DHT22;6303;51.504;6.300;2023-09-12T12:46:49;32.70;60.00
12477;DHT22;6303;51.504;6.300;2023-09-12T12:49:16;32.60;60.00
12477;DHT22;6303;51.504;6.300;2023-09-12T12:51:43;32.60;60.10
12477;DHT22;6303;51.504;6.300;2023-09-12T12:54:11;32.60;60.10
12477;DHT22;6303;51.504;6.300;2023-09-12T12:56:38;32.60;60.00
12477;DHT22;6303;51.504;6.300;2023-09-12T12:59:07;32.60;60.20
12477;DHT22;6303;51.504;6.300;2023-09-12T13:01:36;32.60;60.40
12477;DHT22;6303;51.504;6.300;2023-09-12T13:04:05;32.50;60.10
12477;DHT22;6303;51.504;6.300;2023-09-12T13:06:33;32.50;60.00
12477;DHT22;6303;51.504;6.300;2023-09-12T13:09:03;32.40;60.10
12477;DHT22;6303;51.504;6.300;2023-09-12T13:11:31;32.40;60.20
12477;DHT22;6303;51.504;6.300;2023-09-12T13:14:00;32.40;60.50
12477;DHT22;6303;51.504;6.300;2023-09-12T13:16:28;32.40;60.50
12477;DHT22;6303;51.504;6.300;2023-09-12T13:18:55;32.30;60.30
12477;DHT22;6303;51.504;6.300;2023-09-12T13:21:22;32.30;60.50
12477;DHT22;6303;51.504;6.300;2023-09-12T13:23:50;32.30;60.70
12477;DHT22;6303;51.504;6.300;2023-09-12T13:26:17;32.30;61.10
12477;DHT22;6303;51.504;6.300;2023-09-12T13:28:44;32.30;61.00
12477;DHT22;6303;51.504;6.300;2023-09-12T13:31:11;32.30;61.10
12477;DHT22;6303;51.504;6.300;2023-09-12T13:33:39;32.20;61.20
12477;DHT22;6303;51.504;6.300;2023-09-12T13:36:07;32.20;61.20
12477;DHT22;6303;51.504;6.300;2023-09-12T13:38:34;32.20;61.40
12477;DHT22;6303;51.504;6.300;2023-09-12T13:41:02;32.20;61.40
12477;DHT22;6303;51.504;6.300;2023-09-12T13:43:30;32.20;61.40
12477;DHT22;6303;51.504;6.300;2023-09-12T13:45:57;32.10;61.40
12477;DHT22;6303;51.504;6.300;2023-09-12T13:48:24;32.20;61.40
12477;DHT22;6303;51.504;6.300;2023-09-12T13:50:53;32.10;61.10
12477;DHT22;6303;51.504;6.300;2023-09-12T13:53:20;32.10;61.00
12477;DHT22;6303;51.504;6.300;2023-09-12T13:55:47;32.10;60.80
12477;DHT22;6303;51.504;6.300;2023-09-12T13:58:14;32.10;61.10
12477;DHT22;6303;51.504;6.300;2023-09-12T14:00:41;32.10;61.00
12477;DHT22;6303;51.504;6.300;2023-09-12T14:03:08;32.10;60.70
12477;DHT22;6303;51.504;6.300;2023-09-12T14:05:36;32.10;60.80
12477;DHT22;6303;51.504;6.300;2023-09-12T14:08:05;32.10;60.90
12477;DHT22;6303;51.504;6.300;2023-09-12T14:10:32;32.00;60.90
12477;DHT22;6303;51.504;6.300;2023-09-12T14:12:59;32.00;61.00
12477;DHT22;6303;51.504;6.300;2023-09-12T14:15:26;32.00;61.10
12477;DHT22;6303;51.504;6.300;2023-09-12T14:17:54;32.00;61.00
12477;DHT22;6303;51.504;6.300;2023-09-12T14:20:21;32.00;60.90
12477;DHT22;6303;51.504;6.300;2023-09-12T14:22:48;32.00;61.00
12477;DHT22;6303;51.504;6.300;2023-09-12T14:25:16;32.00;61.00
12477;DHT22;6303;51.504;6.300;2023-09-12T14:27:44;31.90;60.40
12477;DHT22;6303;51.504;6.300;2023-09-12T14:30:11;31.90;60.00
12477;DHT22;6303;51.504;6.300;2023-09-12T14:32:39;31.90;59.70
12477;DHT22;6303;51.504;6.300;2023-09-12T14:35:07;31.90;59.50
12477;DHT22;6303;51.504;6.300;2023-09-12T14:37:35;31.90;59.50
12477;DHT22;6303;51.504;6.300;2023-09-12T14:40:04;31.90;59.60
12477;DHT22;6303;51.504;6.300;2023-09-12T14:42:33;31.90;59.60
12477;DHT22;6303;51.504;6.300;2023-09-12T14:45:00;31.90;59.60
12477;DHT22;6303;51.504;6.300;2023-09-12T14:47:27;31.90;59.70
12477;DHT22;6303;51.504;6.300;2023-09-12T14:49:56;31.90;59.90
12477;DHT22;6303;51.504;6.300;2023-09-12T14:52:23;31.90;60.00
12477;DHT22;6303;51.504;6.300;2023-09-12T14:54:51;31.90;60.30
12477;DHT22;6303;51.504;6.300;2023-09-12T14:57:18;31.90;60.40
12477;DHT22;6303;51.504;6.300;2023-09-12T14:59:49;31.80;60.30
12477;DHT22;6303;51.504;6.300;2023-09-12T15:02:16;31.80;60.30
12477;DHT22;6303;51.504;6.300;2023-09-12T15:04:43;31.80;60.30
12477;DHT22;6303;51.504;6.300;2023-09-12T15:07:10;31.80;60.30
12477;DHT22;6303;51.504;6.300;2023-09-12T15:09:37;31.80;60.10
12477;DHT22;6303;51.504;6.300;2023-09-12T15:12:05;31.80;60.00
12477;DHT22;6303;51.504;6.300;2023-09-12T15:14:32;31.80;60.20
12477;DHT22;6303;51.504;6.300;2023-09-12T15:17:00;31.80;60.10
12477;DHT22;6303;51.504;6.300;2023-09-12T15:19:27;31.70;60.10
12477;DHT22;6303;51.504;6.300;2023-09-12T15:21:54;31.70;60.20
12477;DHT22;6303;51.504;6.300;2023-09-12T15:24:21;31.70;60.30
12477;DHT22;6303;51.504;6.300;2023-09-12T15:26:48;31.70;60.30
12477;DHT22;6303;51.504;6.300;2023-09-12T15:29:15;31.70;60.30
12477;DHT22;6303;51.504;6.300;2023-09-12T15:31:42;31.70;60.20
12477;DHT22;6303;51.504;6.300;2023-09-12T15:34:11;31.70;59.90
12477;DHT22;6303;51.504;6.300;2023-09-12T15:36:43;31.70;59.80
12477;DHT22;6303;51.504;6.300;2023-09-12T15:39:10;31.70;60.00
12477;DHT22;6303;51.504;6.300;2023-09-12T15:41:37;31.70;60.10
12477;DHT22;6303;51.504;6.300;2023-09-12T15:44:05;31.70;60.00
12477;DHT22;6303;51.504;6.300;2023-09-12T15:46:32;31.70;60.10
12477;DHT22;6303;51.504;6.300;2023-09-12T15:49:00;31.70;59.90
12477;DHT22;6303;51.504;6.300;2023-09-12T15:51:28;31.70;59.80
12477;DHT22;6303;51.504;6.300;2023-09-12T15:53:57;31.70;59.70